createdAt,value
2017-05-10T00:00:50.917Z,0
2017-05-10T00:01:50.583Z,0
2017-05-10T00:02:50.575Z,0
2017-05-10T00:03:50.851Z,0
2017-05-10T00:04:50.836Z,0
2017-05-10T00:05:51.412Z,0
2017-05-10T00:06:50.804Z,0
2017-05-10T00:07:50.469Z,0
2017-05-10T00:08:50.860Z,0
2017-05-10T00:09:51.061Z,0
2017-05-10T00:10:50.701Z,0
2017-05-10T00:11:51.293Z,0
2017-05-10T00:12:51.086Z,0
2017-05-10T00:13:50.681Z,0
2017-05-10T00:14:50.639Z,0
2017-05-10T00:15:50.613Z,0
2017-05-10T00:16:50.639Z,0
2017-05-10T00:17:50.639Z,0
2017-05-10T00:18:50.554Z,0
2017-05-10T00:19:51.192Z,0
2017-05-10T00:20:50.845Z,0
2017-05-10T00:21:50.775Z,0
2017-05-10T00:22:50.743Z,0
2017-05-10T00:23:50.738Z,0
2017-05-10T00:24:50.729Z,0
2017-05-10T00:25:50.698Z,0
2017-05-10T00:26:50.707Z,0
2017-05-10T00:27:50.655Z,0
2017-05-10T00:28:50.351Z,0
2017-05-10T00:29:50.613Z,0
2017-05-10T00:30:50.659Z,0
2017-05-10T00:31:50.905Z,0
2017-05-10T00:32:50.559Z,0
2017-05-10T00:33:50.860Z,0
2017-05-10T00:34:50.503Z,0
2017-05-10T00:35:50.819Z,0
2017-05-10T00:36:50.162Z,0
2017-05-10T00:37:50.783Z,0
2017-05-10T00:38:50.725Z,0
2017-05-10T00:39:50.717Z,0
2017-05-10T00:40:50.751Z,0
2017-05-10T00:41:50.110Z,0
2017-05-10T00:42:50.671Z,0
2017-05-10T00:43:50.656Z,0
2017-05-10T00:44:50.615Z,0
2017-05-10T00:45:50.569Z,0
2017-05-10T00:46:50.600Z,0
2017-05-10T00:47:50.254Z,0
2017-05-10T00:48:50.559Z,0
2017-05-10T00:49:49.885Z,0
2017-05-10T00:50:50.478Z,0
2017-05-10T00:51:50.152Z,0
2017-05-10T00:52:50.132Z,0
2017-05-10T00:53:50.413Z,0
2017-05-10T00:54:50.086Z,0
2017-05-10T00:55:49.502Z,0
2017-05-10T00:56:50.050Z,0
2017-05-10T00:57:49.750Z,0
2017-05-10T00:58:50.023Z,0
2017-05-10T00:59:49.693Z,0
2017-05-10T01:00:49.955Z,0
2017-05-10T01:01:49.946Z,0
2017-05-10T01:02:49.928Z,0
2017-05-10T01:03:49.955Z,0
2017-05-10T01:04:49.964Z,0
2017-05-10T01:05:50.193Z,0
2017-05-10T01:06:49.534Z,0
2017-05-10T01:07:50.117Z,0
2017-05-10T01:08:49.563Z,0
2017-05-10T01:09:49.454Z,0
2017-05-10T01:10:49.454Z,0
2017-05-10T01:11:50.105Z,0
2017-05-10T01:12:50.143Z,0
2017-05-10T01:13:49.382Z,0
2017-05-10T01:14:49.483Z,0
2017-05-10T01:15:49.383Z,0
2017-05-10T01:16:49.640Z,0
2017-05-10T01:17:49.054Z,0
2017-05-10T01:18:49.896Z,0
2017-05-10T01:19:49.572Z,0
2017-05-10T01:20:49.223Z,0
2017-05-10T01:21:49.609Z,0
2017-05-10T01:22:48.884Z,0
2017-05-10T01:23:49.263Z,0
2017-05-10T01:24:49.478Z,0
2017-05-10T01:25:49.503Z,0
2017-05-10T01:26:49.411Z,0
2017-05-10T01:27:49.093Z,0
2017-05-10T01:28:49.356Z,0
2017-05-10T01:29:49.332Z,0
2017-05-10T01:30:49.333Z,0
2017-05-10T01:31:49.354Z,0
2017-05-10T01:32:49.066Z,0
2017-05-10T01:33:49.299Z,0
2017-05-10T01:34:48.927Z,0
2017-05-10T01:35:49.261Z,0
2017-05-10T01:36:49.214Z,0
2017-05-10T01:37:48.975Z,0
2017-05-10T01:38:49.138Z,0
2017-05-10T01:39:49.189Z,0
2017-05-10T01:40:49.475Z,0
2017-05-10T01:41:49.165Z,0
2017-05-10T01:42:48.513Z,0
2017-05-10T01:43:49.406Z,0
2017-05-10T01:44:49.053Z,0
2017-05-10T01:45:49.339Z,0
2017-05-10T01:46:49.410Z,0
2017-05-10T01:47:48.742Z,0
2017-05-10T01:48:48.714Z,0
2017-05-10T01:49:48.610Z,0
2017-05-10T01:50:49.262Z,0
2017-05-10T01:51:48.296Z,0
2017-05-10T01:52:48.533Z,0
2017-05-10T01:53:49.135Z,0
2017-05-10T01:54:48.542Z,0
2017-05-10T01:55:48.796Z,0
2017-05-10T01:56:48.253Z,0
2017-05-10T01:57:48.435Z,0
2017-05-10T01:58:48.468Z,0
2017-05-10T01:59:48.172Z,0
2017-05-10T02:00:49.065Z,0
2017-05-10T02:01:48.344Z,0
2017-05-10T02:02:48.632Z,0
2017-05-10T02:03:48.944Z,0
2017-05-10T02:04:48.373Z,0
2017-05-10T02:05:47.952Z,0
2017-05-10T02:06:48.536Z,0
2017-05-10T02:07:48.852Z,0
2017-05-10T02:08:48.299Z,0
2017-05-10T02:09:48.174Z,0
2017-05-10T02:10:48.465Z,0
2017-05-10T02:11:48.126Z,0
2017-05-10T02:12:48.121Z,0
2017-05-10T02:13:48.402Z,0
2017-05-10T02:14:48.682Z,0
2017-05-10T02:15:48.134Z,0
2017-05-10T02:16:48.429Z,0
2017-05-10T02:17:48.002Z,0
2017-05-10T02:18:48.597Z,0
2017-05-10T02:19:48.612Z,0
2017-05-10T02:20:48.250Z,0
2017-05-10T02:21:48.531Z,0
2017-05-10T02:22:48.231Z,0
2017-05-10T02:23:48.170Z,0
2017-05-10T02:24:48.543Z,0
2017-05-10T02:25:48.444Z,0
2017-05-10T02:26:48.103Z,0
2017-05-10T02:27:47.791Z,0
2017-05-10T02:28:48.089Z,0
2017-05-10T02:29:48.354Z,0
2017-05-10T02:30:48.034Z,0
2017-05-10T02:31:48.313Z,0
2017-05-10T02:32:47.993Z,0
2017-05-10T02:33:48.253Z,0
2017-05-10T02:34:48.244Z,0
2017-05-10T02:35:48.223Z,0
2017-05-10T02:36:48.194Z,0
2017-05-10T02:37:48.170Z,0
2017-05-10T02:38:47.856Z,0
2017-05-10T02:39:47.532Z,0
2017-05-10T02:40:47.212Z,0
2017-05-10T02:41:47.782Z,0
2017-05-10T02:42:48.063Z,0
2017-05-10T02:43:47.134Z,0
2017-05-10T02:44:47.718Z,0
2017-05-10T02:45:47.403Z,0
2017-05-10T02:46:47.426Z,0
2017-05-10T02:47:47.666Z,0
2017-05-10T02:48:47.313Z,0
2017-05-10T02:49:47.621Z,0
2017-05-10T02:50:47.272Z,0
2017-05-10T02:51:47.263Z,0
2017-05-10T02:52:47.610Z,0
2017-05-10T02:53:47.815Z,0
2017-05-10T02:54:47.496Z,0
2017-05-10T02:55:47.802Z,0
2017-05-10T02:56:47.453Z,0
2017-05-10T02:57:47.733Z,0
2017-05-10T02:58:47.422Z,0
2017-05-10T02:59:47.385Z,0
2017-05-10T03:00:47.364Z,0
2017-05-10T03:01:47.416Z,0
2017-05-10T03:02:47.634Z,0
2017-05-10T03:03:47.613Z,0
2017-05-10T03:04:47.583Z,0
2017-05-10T03:05:47.053Z,0
2017-05-10T03:06:47.233Z,0
2017-05-10T03:07:46.912Z,0
2017-05-10T03:08:47.486Z,0
2017-05-10T03:09:47.173Z,0
2017-05-10T03:10:47.143Z,0
2017-05-10T03:11:46.505Z,0
2017-05-10T03:12:47.112Z,0
2017-05-10T03:13:47.097Z,0
2017-05-10T03:14:47.363Z,0
2017-05-10T03:15:47.033Z,0
2017-05-10T03:16:47.132Z,0
2017-05-10T03:17:46.691Z,0
2017-05-10T03:18:46.361Z,0
2017-05-10T03:19:46.945Z,0
2017-05-10T03:20:47.043Z,0
2017-05-10T03:21:47.202Z,0
2017-05-10T03:22:46.908Z,0
2017-05-10T03:23:46.863Z,0
2017-05-10T03:24:46.828Z,0
2017-05-10T03:25:46.824Z,0
2017-05-10T03:26:46.556Z,0
2017-05-10T03:27:47.113Z,0
2017-05-10T03:28:46.844Z,0
2017-05-10T03:29:46.854Z,0
2017-05-10T03:30:46.723Z,0
2017-05-10T03:31:47.005Z,0
2017-05-10T03:32:46.713Z,0
2017-05-10T03:33:46.344Z,0
2017-05-10T03:34:46.924Z,0
2017-05-10T03:35:46.293Z,0
2017-05-10T03:36:46.255Z,0
2017-05-10T03:37:46.854Z,0
2017-05-10T03:38:46.522Z,0
2017-05-10T03:39:46.814Z,0
2017-05-10T03:40:46.496Z,0
2017-05-10T03:41:46.142Z,0
2017-05-10T03:42:46.190Z,0
2017-05-10T03:43:46.415Z,0
2017-05-10T03:44:45.774Z,0
2017-05-10T03:45:46.052Z,0
2017-05-10T03:46:45.754Z,0
2017-05-10T03:47:46.015Z,0
2017-05-10T03:48:46.015Z,0
2017-05-10T03:49:45.972Z,0
2017-05-10T03:50:45.979Z,5
2017-05-10T03:51:46.229Z,5
2017-05-10T03:52:46.573Z,5
2017-05-10T03:53:45.943Z,5
2017-05-10T03:54:46.625Z,5
2017-05-10T03:55:45.963Z,5
2017-05-10T03:56:45.821Z,5
2017-05-10T03:57:45.957Z,5
2017-05-10T03:58:45.760Z,5
2017-05-10T03:59:46.157Z,5
2017-05-10T04:00:45.744Z,5
2017-05-10T04:01:45.839Z,5
2017-05-10T04:02:45.991Z,5
2017-05-10T04:03:45.759Z,5
2017-05-10T04:04:46.246Z,10
2017-05-10T04:05:45.727Z,10
2017-05-10T04:06:45.904Z,10
2017-05-10T04:07:45.904Z,10
2017-05-10T04:08:46.193Z,10
2017-05-10T04:09:45.835Z,10
2017-05-10T04:10:45.814Z,10
2017-05-10T04:11:45.803Z,10
2017-05-10T04:12:45.784Z,10
2017-05-10T04:13:46.057Z,10
2017-05-10T04:14:46.077Z,10
2017-05-10T04:15:45.695Z,15
2017-05-10T04:16:45.374Z,15
2017-05-10T04:17:45.656Z,15
2017-05-10T04:18:45.389Z,15
2017-05-10T04:19:45.611Z,15
2017-05-10T04:20:46.042Z,15
2017-05-10T04:21:45.266Z,15
2017-05-10T04:22:45.553Z,15
2017-05-10T04:23:45.204Z,20
2017-05-10T04:24:45.567Z,20
2017-05-10T04:25:45.226Z,20
2017-05-10T04:26:45.781Z,20
2017-05-10T04:27:45.128Z,20
2017-05-10T04:28:45.577Z,20
2017-05-10T04:29:45.448Z,20
2017-05-10T04:30:45.184Z,20
2017-05-10T04:31:45.455Z,25
2017-05-10T04:32:45.727Z,25
2017-05-10T04:33:45.314Z,25
2017-05-10T04:34:44.993Z,25
2017-05-10T04:35:45.285Z,25
2017-05-10T04:36:45.012Z,25
2017-05-10T04:37:45.272Z,25
2017-05-10T04:38:45.259Z,30
2017-05-10T04:39:44.855Z,30
2017-05-10T04:40:45.284Z,30
2017-05-10T04:41:45.133Z,30
2017-05-10T04:42:45.440Z,30
2017-05-10T04:43:44.508Z,35
2017-05-10T04:44:45.374Z,35
2017-05-10T04:45:44.470Z,35
2017-05-10T04:46:44.732Z,35
2017-05-10T04:47:44.744Z,35
2017-05-10T04:48:44.972Z,40
2017-05-10T04:49:44.955Z,40
2017-05-10T04:50:44.931Z,40
2017-05-10T04:51:45.005Z,40
2017-05-10T04:52:44.868Z,40
2017-05-10T04:53:44.891Z,45
2017-05-10T04:54:44.828Z,45
2017-05-10T04:55:44.504Z,45
2017-05-10T04:56:44.860Z,50
2017-05-10T04:57:45.103Z,50
2017-05-10T04:58:44.441Z,50
2017-05-10T04:59:44.752Z,55
2017-05-10T05:00:44.694Z,55
2017-05-10T05:01:44.446Z,55
2017-05-10T05:02:44.351Z,55
2017-05-10T05:03:44.959Z,60
2017-05-10T05:04:44.294Z,60
2017-05-10T05:05:44.753Z,60
2017-05-10T05:06:44.925Z,60
2017-05-10T05:07:44.585Z,60
2017-05-10T05:08:44.222Z,60
2017-05-10T05:09:44.193Z,60
2017-05-10T05:10:44.523Z,65
2017-05-10T05:11:44.545Z,65
2017-05-10T05:12:44.464Z,65
2017-05-10T05:13:44.889Z,65
2017-05-10T05:14:44.706Z,65
2017-05-10T05:15:44.671Z,65
2017-05-10T05:16:44.663Z,70
2017-05-10T05:17:44.634Z,70
2017-05-10T05:18:44.320Z,70
2017-05-10T05:19:44.022Z,70
2017-05-10T05:20:44.572Z,75
2017-05-10T05:21:43.663Z,75
2017-05-10T05:22:44.213Z,80
2017-05-10T05:23:43.605Z,80
2017-05-10T05:24:43.849Z,80
2017-05-10T05:25:44.481Z,80
2017-05-10T05:26:43.872Z,80
2017-05-10T05:27:44.155Z,75
2017-05-10T05:28:44.412Z,80
2017-05-10T05:29:44.382Z,85
2017-05-10T05:30:44.080Z,85
2017-05-10T05:31:43.719Z,90
2017-05-10T05:32:44.049Z,90
2017-05-10T05:33:43.657Z,95
2017-05-10T05:34:43.977Z,95
2017-05-10T05:35:44.047Z,95
2017-05-10T05:36:43.941Z,95
2017-05-10T05:37:43.572Z,95
2017-05-10T05:38:43.551Z,95
2017-05-10T05:39:44.153Z,95
2017-05-10T05:40:43.494Z,95
2017-05-10T05:41:43.486Z,100
2017-05-10T05:42:44.076Z,105
2017-05-10T05:43:43.453Z,105
2017-05-10T05:44:43.503Z,110
2017-05-10T05:45:43.407Z,110
2017-05-10T05:46:43.383Z,110
2017-05-10T05:47:43.372Z,110
2017-05-10T05:48:43.394Z,110
2017-05-10T05:49:43.914Z,110
2017-05-10T05:50:43.602Z,110
2017-05-10T05:51:43.687Z,115
2017-05-10T05:52:43.864Z,115
2017-05-10T05:53:43.549Z,110
2017-05-10T05:54:43.512Z,105
2017-05-10T05:55:43.521Z,100
2017-05-10T05:56:43.162Z,105
2017-05-10T05:57:43.756Z,115
2017-05-10T05:58:42.823Z,115
2017-05-10T05:59:43.215Z,115
2017-05-10T06:00:43.692Z,115
2017-05-10T06:01:43.403Z,115
2017-05-10T06:02:43.383Z,115
2017-05-10T06:03:43.654Z,120
2017-05-10T06:04:43.634Z,120
2017-05-10T06:05:43.603Z,125
2017-05-10T06:06:43.572Z,130
2017-05-10T06:07:43.566Z,130
2017-05-10T06:08:43.542Z,130
2017-05-10T06:09:42.901Z,135
2017-05-10T06:10:43.203Z,135
2017-05-10T06:11:43.184Z,140
2017-05-10T06:12:43.462Z,145
2017-05-10T06:13:43.433Z,145
2017-05-10T06:14:43.432Z,150
2017-05-10T06:15:43.411Z,155
2017-05-10T06:16:43.379Z,155
2017-05-10T06:17:43.105Z,155
2017-05-10T06:18:43.337Z,160
2017-05-10T06:19:43.312Z,160
2017-05-10T06:20:42.992Z,160
2017-05-10T06:21:42.986Z,155
2017-05-10T06:22:43.267Z,155
2017-05-10T06:23:43.212Z,150
2017-05-10T06:24:42.912Z,150
2017-05-10T06:25:43.189Z,150
2017-05-10T06:26:43.163Z,155
2017-05-10T06:27:42.322Z,160
2017-05-10T06:28:42.819Z,165
2017-05-10T06:29:42.230Z,165
2017-05-10T06:30:42.792Z,170
2017-05-10T06:31:42.455Z,170
2017-05-10T06:32:42.720Z,170
2017-05-10T06:33:43.032Z,170
2017-05-10T06:34:43.012Z,170
2017-05-10T06:35:42.995Z,175
2017-05-10T06:36:42.470Z,175
2017-05-10T06:37:42.764Z,185
2017-05-10T06:38:42.930Z,185
2017-05-10T06:39:42.912Z,190
2017-05-10T06:40:42.583Z,190
2017-05-10T06:41:41.955Z,190
2017-05-10T06:42:42.853Z,190
2017-05-10T06:43:42.240Z,185
2017-05-10T06:44:42.923Z,190
2017-05-10T06:45:42.488Z,190
2017-05-10T06:46:42.152Z,195
2017-05-10T06:47:42.742Z,195
2017-05-10T06:48:42.428Z,200
2017-05-10T06:49:42.385Z,205
2017-05-10T06:50:42.400Z,205
2017-05-10T06:51:42.681Z,200
2017-05-10T06:52:42.334Z,200
2017-05-10T06:53:42.044Z,205
2017-05-10T06:54:42.610Z,205
2017-05-10T06:55:41.675Z,210
2017-05-10T06:56:42.081Z,205
2017-05-10T06:57:42.238Z,205
2017-05-10T06:58:42.600Z,210
2017-05-10T06:59:42.196Z,210
2017-05-10T07:00:42.125Z,215
2017-05-10T07:01:42.172Z,215
2017-05-10T07:02:42.155Z,215
2017-05-10T07:03:42.442Z,215
2017-05-10T07:04:42.253Z,215
2017-05-10T07:05:41.804Z,215
2017-05-10T07:06:42.065Z,215
2017-05-10T07:07:41.138Z,215
2017-05-10T07:08:42.371Z,225
2017-05-10T07:09:41.697Z,215
2017-05-10T07:10:42.331Z,215
2017-05-10T07:11:41.685Z,225
2017-05-10T07:12:41.342Z,225
2017-05-10T07:13:42.276Z,220
2017-05-10T07:14:41.303Z,225
2017-05-10T07:15:41.924Z,230
2017-05-10T07:16:41.582Z,235
2017-05-10T07:17:41.555Z,235
2017-05-10T07:18:41.543Z,235
2017-05-10T07:19:42.134Z,240
2017-05-10T07:20:41.812Z,230
2017-05-10T07:21:41.462Z,235
2017-05-10T07:22:41.522Z,240
2017-05-10T07:23:41.765Z,245
2017-05-10T07:24:42.047Z,245
2017-05-10T07:25:41.706Z,245
2017-05-10T07:26:41.408Z,250
2017-05-10T07:27:41.382Z,250
2017-05-10T07:28:41.984Z,255
2017-05-10T07:29:41.328Z,260
2017-05-10T07:30:41.343Z,265
2017-05-10T07:31:41.284Z,275
2017-05-10T07:32:41.671Z,280
2017-05-10T07:33:41.254Z,290
2017-05-10T07:34:41.252Z,310
2017-05-10T07:35:41.527Z,305
2017-05-10T07:36:41.530Z,310
2017-05-10T07:37:41.179Z,315
2017-05-10T07:38:41.812Z,315
2017-05-10T07:39:40.849Z,320
2017-05-10T07:40:40.891Z,325
2017-05-10T07:41:41.731Z,315
2017-05-10T07:42:41.416Z,315
2017-05-10T07:43:41.723Z,310
2017-05-10T07:44:40.752Z,315
2017-05-10T07:45:41.115Z,320
2017-05-10T07:46:41.065Z,310
2017-05-10T07:47:41.323Z,305
2017-05-10T07:48:40.996Z,305
2017-05-10T07:49:41.096Z,305
2017-05-10T07:50:41.293Z,315
2017-05-10T07:51:41.350Z,320
2017-05-10T07:52:41.280Z,320
2017-05-10T07:53:41.533Z,325
2017-05-10T07:54:40.990Z,335
2017-05-10T07:55:41.205Z,355
2017-05-10T07:56:41.147Z,365
2017-05-10T07:57:40.973Z,370
2017-05-10T07:58:41.122Z,385
2017-05-10T07:59:41.171Z,390
2017-05-10T08:00:41.112Z,470
2017-05-10T08:01:41.144Z,615
2017-05-10T08:02:41.065Z,795
2017-05-10T08:03:41.048Z,970
2017-05-10T08:04:41.347Z,1150
2017-05-10T08:05:41.013Z,1305
2017-05-10T08:06:41.098Z,1265
2017-05-10T08:07:41.284Z,1360
2017-05-10T08:08:41.284Z,1410
2017-05-10T08:09:41.295Z,1400
2017-05-10T08:10:40.985Z,1295
2017-05-10T08:11:40.941Z,1400
2017-05-10T08:12:41.225Z,1395
2017-05-10T08:13:41.219Z,1330
2017-05-10T08:14:40.930Z,1350
2017-05-10T08:15:41.196Z,1355
2017-05-10T08:16:39.973Z,815
2017-05-10T08:17:40.906Z,350
2017-05-10T08:18:41.157Z,345
2017-05-10T08:19:41.156Z,360
2017-05-10T08:20:40.513Z,370
2017-05-10T08:21:40.906Z,950
2017-05-10T08:22:41.233Z,395
2017-05-10T08:23:41.205Z,350
2017-05-10T08:24:40.602Z,840
2017-05-10T08:25:40.875Z,1225
2017-05-10T08:26:41.062Z,1235
2017-05-10T08:27:41.190Z,1225
2017-05-10T08:28:41.080Z,1270
2017-05-10T08:29:41.055Z,1335
2017-05-10T08:30:41.095Z,1170
2017-05-10T08:31:41.057Z,1405
2017-05-10T08:32:41.058Z,1320
2017-05-10T08:33:40.722Z,1255
2017-05-10T08:34:40.381Z,610
2017-05-10T08:35:40.362Z,1115
2017-05-10T08:36:40.349Z,1090
2017-05-10T08:37:41.002Z,1200
2017-05-10T08:38:41.010Z,1045
2017-05-10T08:39:40.618Z,745
2017-05-10T08:40:40.325Z,1190
2017-05-10T08:41:40.929Z,895
2017-05-10T08:42:40.404Z,600
2017-05-10T08:43:40.593Z,530
2017-05-10T08:44:40.081Z,370
2017-05-10T08:45:40.583Z,640
2017-05-10T08:46:40.950Z,415
2017-05-10T08:47:40.565Z,445
2017-05-10T08:48:40.242Z,415
2017-05-10T08:49:40.548Z,685
2017-05-10T08:50:40.853Z,920
2017-05-10T08:51:40.506Z,1320
2017-05-10T08:52:40.514Z,1255
2017-05-10T08:53:40.512Z,970
2017-05-10T08:54:40.783Z,1335
2017-05-10T08:55:40.163Z,465
2017-05-10T08:56:40.468Z,800
2017-05-10T08:57:39.840Z,445
2017-05-10T08:58:40.442Z,1415
2017-05-10T08:59:40.274Z,1135
2017-05-10T09:00:40.134Z,1345
2017-05-10T09:01:40.734Z,1430
2017-05-10T09:02:40.399Z,1500
2017-05-10T09:03:40.699Z,640
2017-05-10T09:04:40.473Z,1425
2017-05-10T09:05:40.690Z,1440
2017-05-10T09:06:40.678Z,1365
2017-05-10T09:07:40.064Z,1345
2017-05-10T09:08:40.686Z,1345
2017-05-10T09:09:40.675Z,1470
2017-05-10T09:10:40.668Z,1370
2017-05-10T09:11:40.719Z,1255
2017-05-10T09:12:40.035Z,1300
2017-05-10T09:13:40.693Z,1295
2017-05-10T09:14:40.455Z,435
2017-05-10T09:15:40.326Z,1185
2017-05-10T09:16:40.636Z,445
2017-05-10T09:17:40.318Z,395
2017-05-10T09:18:40.668Z,650
2017-05-10T09:19:40.300Z,435
2017-05-10T09:20:40.583Z,665
2017-05-10T09:21:40.572Z,380
2017-05-10T09:22:40.283Z,475
2017-05-10T09:23:40.316Z,350
2017-05-10T09:24:40.703Z,365
2017-05-10T09:25:40.594Z,385
2017-05-10T09:26:40.243Z,360
2017-05-10T09:27:40.605Z,310
2017-05-10T09:28:40.539Z,300
2017-05-10T09:29:40.512Z,325
2017-05-10T09:30:40.189Z,435
2017-05-10T09:31:40.176Z,330
2017-05-10T09:32:39.878Z,335
2017-05-10T09:33:40.264Z,1280
2017-05-10T09:34:39.834Z,345
2017-05-10T09:35:39.866Z,300
2017-05-10T09:36:39.885Z,320
2017-05-10T09:37:39.831Z,1185
2017-05-10T09:38:39.808Z,1165
2017-05-10T09:39:40.415Z,1140
2017-05-10T09:40:40.419Z,405
2017-05-10T09:41:40.101Z,1005
2017-05-10T09:42:39.793Z,975
2017-05-10T09:43:40.379Z,495
2017-05-10T09:44:39.721Z,1050
2017-05-10T09:45:39.739Z,1125
2017-05-10T09:46:39.729Z,405
2017-05-10T09:47:39.716Z,315
2017-05-10T09:48:39.724Z,345
2017-05-10T09:49:40.004Z,1150
2017-05-10T09:50:40.029Z,370
2017-05-10T09:51:40.286Z,380
2017-05-10T09:52:40.265Z,360
2017-05-10T09:53:40.004Z,325
2017-05-10T09:54:40.259Z,315
2017-05-10T09:55:39.644Z,330
2017-05-10T09:56:39.995Z,295
2017-05-10T09:57:39.972Z,275
2017-05-10T09:58:39.910Z,285
2017-05-10T09:59:40.203Z,305
2017-05-10T10:00:38.983Z,285
2017-05-10T10:01:39.616Z,290
2017-05-10T10:02:39.575Z,295
2017-05-10T10:03:39.882Z,325
2017-05-10T10:04:40.275Z,300
2017-05-10T10:05:39.847Z,305
2017-05-10T10:06:39.553Z,300
2017-05-10T10:07:40.107Z,285
2017-05-10T10:08:39.585Z,285
2017-05-10T10:09:39.474Z,290
2017-05-10T10:10:39.784Z,295
2017-05-10T10:11:39.595Z,305
2017-05-10T10:12:40.095Z,805
2017-05-10T10:13:39.738Z,730
2017-05-10T10:14:39.821Z,320
2017-05-10T10:15:39.391Z,345
2017-05-10T10:16:39.473Z,420
2017-05-10T10:17:40.003Z,460
2017-05-10T10:18:39.738Z,450
2017-05-10T10:19:39.337Z,435
2017-05-10T10:20:39.404Z,440
2017-05-10T10:21:39.973Z,435
2017-05-10T10:22:39.630Z,420
2017-05-10T10:23:39.323Z,440
2017-05-10T10:24:39.583Z,370
2017-05-10T10:25:39.945Z,320
2017-05-10T10:26:39.914Z,345
2017-05-10T10:27:39.863Z,370
2017-05-10T10:28:39.565Z,340
2017-05-10T10:29:38.926Z,290
2017-05-10T10:30:39.545Z,270
2017-05-10T10:31:39.870Z,250
2017-05-10T10:32:39.533Z,240
2017-05-10T10:33:39.499Z,240
2017-05-10T10:34:39.764Z,245
2017-05-10T10:35:39.501Z,250
2017-05-10T10:36:39.454Z,255
2017-05-10T10:37:39.453Z,265
2017-05-10T10:38:39.430Z,270
2017-05-10T10:39:39.777Z,280
2017-05-10T10:40:39.693Z,380
2017-05-10T10:41:39.386Z,400
2017-05-10T10:42:38.868Z,295
2017-05-10T10:43:39.063Z,275
2017-05-10T10:44:39.668Z,275
2017-05-10T10:45:38.555Z,265
2017-05-10T10:46:38.709Z,265
2017-05-10T10:47:39.046Z,300
2017-05-10T10:48:39.314Z,285
2017-05-10T10:49:39.300Z,330
2017-05-10T10:50:39.623Z,410
2017-05-10T10:51:39.265Z,290
2017-05-10T10:52:38.627Z,275
2017-05-10T10:53:39.254Z,305
2017-05-10T10:54:38.913Z,290
2017-05-10T10:55:39.532Z,375
2017-05-10T10:56:38.873Z,440
2017-05-10T10:57:39.242Z,435
2017-05-10T10:58:39.190Z,430
2017-05-10T10:59:39.252Z,305
2017-05-10T11:00:39.154Z,310
2017-05-10T11:01:38.837Z,405
2017-05-10T11:02:39.128Z,395
2017-05-10T11:03:39.263Z,410
2017-05-10T11:04:38.491Z,410
2017-05-10T11:05:38.833Z,410
2017-05-10T11:06:38.870Z,410
2017-05-10T11:07:38.734Z,315
2017-05-10T11:08:39.346Z,325
2017-05-10T11:09:39.083Z,410
2017-05-10T11:10:39.331Z,440
2017-05-10T11:11:38.694Z,385
2017-05-10T11:12:38.683Z,340
2017-05-10T11:13:39.266Z,335
2017-05-10T11:14:38.654Z,360
2017-05-10T11:15:38.651Z,375
2017-05-10T11:16:38.975Z,275
2017-05-10T11:17:38.626Z,285
2017-05-10T11:18:38.616Z,300
2017-05-10T11:19:38.908Z,290
2017-05-10T11:20:39.197Z,290
2017-05-10T11:21:38.908Z,285
2017-05-10T11:22:39.299Z,280
2017-05-10T11:23:39.292Z,275
2017-05-10T11:24:38.539Z,265
2017-05-10T11:25:39.196Z,260
2017-05-10T11:26:38.555Z,250
2017-05-10T11:27:38.882Z,245
2017-05-10T11:28:38.802Z,250
2017-05-10T11:29:39.107Z,370
2017-05-10T11:30:38.793Z,320
2017-05-10T11:31:39.073Z,390
2017-05-10T11:32:38.122Z,385
2017-05-10T11:33:38.497Z,385
2017-05-10T11:34:38.776Z,380
2017-05-10T11:35:38.693Z,380
2017-05-10T11:36:39.008Z,385
2017-05-10T11:37:38.374Z,300
2017-05-10T11:38:38.674Z,350
2017-05-10T11:39:38.654Z,405
2017-05-10T11:40:38.634Z,410
2017-05-10T11:41:38.623Z,410
2017-05-10T11:42:38.309Z,390
2017-05-10T11:43:38.615Z,380
2017-05-10T11:44:37.973Z,260
2017-05-10T11:45:38.895Z,245
2017-05-10T11:46:38.274Z,235
2017-05-10T11:47:38.573Z,125
2017-05-10T11:48:38.565Z,340
2017-05-10T11:49:38.589Z,210
2017-05-10T11:50:38.555Z,195
2017-05-10T11:51:38.824Z,200
2017-05-10T11:52:38.787Z,205
2017-05-10T11:53:38.187Z,220
2017-05-10T11:54:38.791Z,320
2017-05-10T11:55:38.817Z,320
2017-05-10T11:56:38.772Z,335
2017-05-10T11:57:38.442Z,375
2017-05-10T11:58:38.723Z,365
2017-05-10T11:59:38.745Z,360
2017-05-10T12:00:38.414Z,365
2017-05-10T12:01:38.705Z,370
2017-05-10T12:02:38.677Z,220
2017-05-10T12:03:38.666Z,260
2017-05-10T12:04:38.385Z,215
2017-05-10T12:05:38.354Z,245
2017-05-10T12:06:38.645Z,210
2017-05-10T12:07:38.318Z,220
2017-05-10T12:08:38.629Z,330
2017-05-10T12:09:38.601Z,220
2017-05-10T12:10:38.609Z,290
2017-05-10T12:11:38.592Z,330
2017-05-10T12:12:38.565Z,335
2017-05-10T12:13:38.567Z,340
2017-05-10T12:14:38.562Z,335
2017-05-10T12:15:37.923Z,335
2017-05-10T12:16:37.714Z,335
2017-05-10T12:17:38.504Z,340
2017-05-10T12:18:38.293Z,340
2017-05-10T12:19:38.280Z,340
2017-05-10T12:20:38.471Z,335
2017-05-10T12:21:38.527Z,330
2017-05-10T12:22:38.143Z,290
2017-05-10T12:23:38.155Z,315
2017-05-10T12:24:38.111Z,295
2017-05-10T12:25:38.110Z,210
2017-05-10T12:26:38.100Z,185
2017-05-10T12:27:38.393Z,260
2017-05-10T12:28:38.475Z,320
2017-05-10T12:29:38.086Z,320
2017-05-10T12:30:38.382Z,220
2017-05-10T12:31:38.053Z,330
2017-05-10T12:32:37.872Z,330
2017-05-10T12:33:38.032Z,320
2017-05-10T12:34:38.115Z,315
2017-05-10T12:35:37.973Z,310
2017-05-10T12:36:38.279Z,310
2017-05-10T12:37:38.294Z,310
2017-05-10T12:38:37.945Z,310
2017-05-10T12:39:38.244Z,305
2017-05-10T12:40:37.632Z,305
2017-05-10T12:41:37.950Z,310
2017-05-10T12:42:38.003Z,300
2017-05-10T12:43:38.194Z,295
2017-05-10T12:44:38.302Z,290
2017-05-10T12:45:37.964Z,285
2017-05-10T12:46:36.938Z,280
2017-05-10T12:47:37.903Z,280
2017-05-10T12:48:37.581Z,285
2017-05-10T12:49:38.164Z,275
2017-05-10T12:50:37.552Z,270
2017-05-10T12:51:38.086Z,270
2017-05-10T12:52:38.078Z,275
2017-05-10T12:53:37.901Z,265
2017-05-10T12:54:37.452Z,270
2017-05-10T12:55:38.093Z,270
2017-05-10T12:56:38.050Z,265
2017-05-10T12:57:38.170Z,270
2017-05-10T12:58:38.024Z,265
2017-05-10T12:59:37.687Z,255
2017-05-10T13:00:37.404Z,260
2017-05-10T13:01:37.682Z,260
2017-05-10T13:02:37.367Z,260
2017-05-10T13:03:37.944Z,260
2017-05-10T13:04:37.941Z,255
2017-05-10T13:05:37.052Z,255
2017-05-10T13:06:37.362Z,255
2017-05-10T13:07:37.911Z,255
2017-05-10T13:08:37.618Z,250
2017-05-10T13:09:37.682Z,250
2017-05-10T13:10:37.561Z,250
2017-05-10T13:11:37.575Z,245
2017-05-10T13:12:37.031Z,250
2017-05-10T13:13:37.863Z,250
2017-05-10T13:14:37.659Z,250
2017-05-10T13:15:37.210Z,250
2017-05-10T13:16:37.584Z,250
2017-05-10T13:17:37.491Z,245
2017-05-10T13:18:37.241Z,250
2017-05-10T13:19:37.199Z,245
2017-05-10T13:20:37.553Z,250
2017-05-10T13:21:37.473Z,245
2017-05-10T13:22:37.742Z,240
2017-05-10T13:23:37.464Z,240
2017-05-10T13:24:37.403Z,240
2017-05-10T13:25:37.469Z,235
2017-05-10T13:26:37.726Z,240
2017-05-10T13:27:37.065Z,240
2017-05-10T13:28:37.401Z,240
2017-05-10T13:29:37.449Z,240
2017-05-10T13:30:37.084Z,235
2017-05-10T13:31:37.335Z,235
2017-05-10T13:32:36.517Z,235
2017-05-10T13:33:37.440Z,235
2017-05-10T13:34:37.302Z,230
2017-05-10T13:35:36.985Z,235
2017-05-10T13:36:37.722Z,230
2017-05-10T13:37:37.015Z,230
2017-05-10T13:38:37.662Z,230
2017-05-10T13:39:37.263Z,230
2017-05-10T13:40:37.282Z,230
2017-05-10T13:41:37.528Z,230
2017-05-10T13:42:37.522Z,230
2017-05-10T13:43:37.496Z,230
2017-05-10T13:44:37.253Z,230
2017-05-10T13:45:36.861Z,230
2017-05-10T13:46:37.265Z,225
2017-05-10T13:47:37.152Z,225
2017-05-10T13:48:36.871Z,225
2017-05-10T13:49:36.555Z,220
2017-05-10T13:50:36.508Z,220
2017-05-10T13:51:37.464Z,225
2017-05-10T13:52:36.773Z,230
2017-05-10T13:53:37.440Z,230
2017-05-10T13:54:37.042Z,230
2017-05-10T13:55:37.151Z,235
2017-05-10T13:56:37.152Z,235
2017-05-10T13:57:37.343Z,235
2017-05-10T13:58:37.012Z,235
2017-05-10T13:59:37.312Z,230
2017-05-10T14:00:36.696Z,225
2017-05-10T14:01:36.991Z,225
2017-05-10T14:02:36.674Z,225
2017-05-10T14:03:36.672Z,225
2017-05-10T14:04:37.252Z,220